Aurora, New Mexico
Current Conditions -  °F | °C
As of 7:53 PM on Saturday 24 Jan 2015 (Local Time) from KLVS Reporting Station
Clear Clear  
Wind Chill:   Ceiling: Unl
Heat Index:   Visibility: 10mi
Dew Point: -9°   Wind: 16mph
Humidity: 35%   Direction: 340°NNW
Pressure: 30.1"   Gusts: NA
Location:  36.0243°N, 105.005°W
Report Text: KLVS 250253Z AUTO 34014KT 10SM CLR 06/M09 A3010 RMK AO2 SLP183 T00561089 51015
Loading
Personal Weather Stations






























Interactive Weather Map New forecast layout! Learn more

10-Day Weather Forecast

Advertisements
Track Severe Weather on mobile